Time;durP1;ratioP1;P1;durP2;ratioP2;P2;SDS_P1;SDS_P2;PMS_P1;PMS_P2;Temp;Humidity;BMP_temperature;BMP_pressure;BME280_temperature;BME280_humidity;BME280_pressure;Samples;Min_cycle;Max_cycle;Signal;HPM_P1;HPM_P2
2021/09/12 00:00:38;;;;;;;6.43;3.50;;;;;;;17.30;100.00;101385.88;6246835;28;20056;-76
2021/09/12 00:03:40;;;;;;;7.10;4.03;;;;;;;17.30;100.00;101388.53;6247087;28;20050;-74
2021/09/12 00:06:42;;;;;;;6.88;3.97;;;;;;;17.30;100.00;101390.34;6247361;28;20493;-73
2021/09/12 00:09:43;;;;;;;8.85;4.35;;;;;;;17.25;100.00;101383.53;6247211;28;20053;-74
2021/09/12 00:12:45;;;;;;;7.15;3.88;;;;;;;17.27;100.00;101388.75;6247406;28;20525;-74
2021/09/12 00:15:49;;;;;;;7.53;4.03;;;;;;;17.24;100.00;101388.97;6246793;28;20076;-74
2021/09/12 00:18:51;;;;;;;8.02;4.32;;;;;;;17.19;100.00;101385.78;6247292;28;20397;-74
2021/09/12 00:21:52;;;;;;;7.18;4.50;;;;;;;17.22;100.00;101385.59;6246946;28;20053;-74
2021/09/12 00:24:54;;;;;;;10.40;4.13;;;;;;;17.21;100.00;101382.09;6246895;28;20497;-74
2021/09/12 00:27:55;;;;;;;7.15;3.60;;;;;;;17.22;100.00;101377.63;6246936;28;20046;-74
2021/09/12 00:30:58;;;;;;;9.75;5.00;;;;;;;17.23;100.00;101382.81;6246950;28;20064;-74
2021/09/12 00:33:59;;;;;;;10.60;4.60;;;;;;;17.28;100.00;101377.19;6246731;28;20057;-74
2021/09/12 00:37:00;;;;;;;7.75;4.32;;;;;;;17.24;100.00;101386.31;6246638;28;20452;-74
2021/09/12 00:40:02;;;;;;;6.60;3.67;;;;;;;17.24;100.00;101386.31;6246911;28;20049;-74
2021/09/12 00:43:03;;;;;;;6.97;3.78;;;;;;;17.25;100.00;101383.53;6246565;28;20076;-74
2021/09/12 00:46:07;;;;;;;6.32;3.60;;;;;;;17.25;100.00;101390.66;6246545;28;20508;-74
2021/09/12 00:49:08;;;;;;;8.98;4.05;;;;;;;17.21;100.00;101386.53;6246631;28;20549;-74
2021/09/12 00:52:12;;;;;;;7.28;3.47;;;;;;;17.21;100.00;101383.88;6246665;28;20612;-74
2021/09/12 00:55:15;;;;;;;6.35;3.85;;;;;;;17.19;100.00;101377.81;6246290;28;20053;-74
2021/09/12 00:58:19;;;;;;;8.13;3.83;;;;;;;17.16;100.00;101378.88;6246658;28;20071;-76
2021/09/12 01:01:21;;;;;;;6.85;4.18;;;;;;;17.19;100.00;101375.16;6246339;28;20053;-74
2021/09/12 01:04:23;;;;;;;7.60;3.85;;;;;;;17.16;100.00;101381.53;6246489;28;20057;-74
2021/09/12 01:07:24;;;;;;;7.40;4.20;;;;;;;17.13;100.00;101387.09;6246470;28;20050;-74
2021/09/12 01:10:26;;;;;;;6.28;3.13;;;;;;;17.14;100.00;101380.81;6246433;28;20053;-74
2021/09/12 01:13:27;;;;;;;6.45;4.07;;;;;;;17.13;100.00;101372.97;6249490;28;20052;-75
2021/09/12 01:16:30;;;;;;;7.35;4.10;;;;;;;17.16;100.00;101367.41;6251295;28;20046;-75
2021/09/12 01:19:32;;;;;;;6.97;4.20;;;;;;;17.14;100.00;101367.53;6251364;28;20100;-75
2021/09/12 01:22:34;;;;;;;6.63;3.33;;;;;;;17.15;100.00;101373.69;6250885;28;20061;-75
2021/09/12 01:25:38;;;;;;;5.03;2.88;;;;;;;17.14;100.00;101374.66;6251068;28;20492;-75
2021/09/12 01:28:40;;;;;;;10.32;4.15;;;;;;;17.13;100.00;101370.31;6250985;28;20045;-75
2021/09/12 01:31:41;;;;;;;7.05;4.18;;;;;;;17.10;100.00;101365.19;6250983;28;20451;-74
2021/09/12 01:34:42;;;;;;;9.50;4.15;;;;;;;17.10;100.00;101378.47;6250640;28;20049;-75
2021/09/12 01:37:44;;;;;;;7.18;4.43;;;;;;;17.12;100.00;101377.44;6250632;28;20068;-75
2021/09/12 01:40:46;;;;;;;8.88;4.85;;;;;;;17.19;100.00;101370.72;6250623;28;20053;-75
2021/09/12 01:43:49;;;;;;;7.70;4.40;;;;;;;17.14;100.00;101372.84;6250312;28;20420;-75
2021/09/12 01:46:50;;;;;;;10.60;4.20;;;;;;;17.14;100.00;101366.69;6250813;28;20049;-75
2021/09/12 01:49:52;;;;;;;9.30;4.60;;;;;;;17.14;100.00;101377.31;6250489;28;20053;-75
2021/09/12 01:52:53;;;;;;;7.72;4.32;;;;;;;17.12;100.00;101361.50;6250463;28;20394;-75
2021/09/12 01:55:56;;;;;;;7.43;4.15;;;;;;;17.14;100.00;101361.38;6249949;28;20516;-75
2021/09/12 01:58:57;;;;;;;10.15;4.43;;;;;;;17.17;100.00;101363.81;6250497;28;20160;-75
2021/09/12 02:01:58;;;;;;;9.73;4.65;;;;;;;17.16;100.00;101364.75;6250076;28;20053;-74
2021/09/12 02:05:00;;;;;;;10.65;4.38;;;;;;;17.15;100.00;101366.56;6250193;28;20054;-75
2021/09/12 02:08:01;;;;;;;9.32;4.63;;;;;;;17.16;100.00;101362.94;6250040;28;20041;-74
2021/09/12 02:11:04;;;;;;;12.82;5.35;;;;;;;17.17;100.00;101358.50;6249817;28;20456;-75
2021/09/12 02:14:05;;;;;;;9.90;4.95;;;;;;;17.16;100.00;101362.94;6249839;28;20061;-75
2021/09/12 02:17:06;;;;;;;8.63;4.55;;;;;;;17.18;100.00;101370.81;6249683;28;20049;-75
2021/09/12 02:20:09;;;;;;;10.93;5.20;;;;;;;17.16;100.00;101362.09;6249948;28;20060;-75
2021/09/12 02:23:11;;;;;;;7.88;3.55;;;;;;;17.15;100.00;101363.91;6248833;28;20061;-75
2021/09/12 02:26:14;;;;;;;9.82;4.35;;;;;;;17.16;100.00;101367.41;6249523;28;20088;-75
2021/09/12 02:29:15;;;;;;;6.80;4.45;;;;;;;17.18;100.00;101362.84;6249599;28;20053;-75
2021/09/12 02:32:16;;;;;;;9.40;5.18;;;;;;;17.19;100.00;101360.09;6249579;28;20132;-74
2021/09/12 02:35:17;;;;;;;7.00;4.15;;;;;;;17.18;100.00;101363.69;6249258;28;20057;-75
2021/09/12 02:38:19;;;;;;;10.25;5.15;;;;;;;17.19;100.00;101365.41;6249446;28;20055;-75
2021/09/12 02:41:22;;;;;;;13.00;5.32;;;;;;;17.16;100.00;101365.59;6249219;28;20053;-75
2021/09/12 02:44:23;;;;;;;7.90;4.60;;;;;;;17.16;100.00;101372.72;6248917;28;20045;-75
2021/09/12 02:47:24;;;;;;;12.75;6.03;;;;;;;17.15;100.00;101377.19;6249222;28;20053;-75
2021/09/12 02:50:26;;;;;;;7.85;4.85;;;;;;;17.14;100.00;101374.66;6249025;28;20057;-75
2021/09/12 02:53:27;;;;;;;13.35;5.10;;;;;;;17.15;100.00;101373.69;6248849;28;20398;-75
2021/09/12 02:56:30;;;;;;;7.38;4.05;;;;;;;17.15;100.00;101374.53;6248825;28;20527;-75
2021/09/12 02:59:31;;;;;;;13.75;4.90;;;;;;;17.13;100.00;101373.81;6249100;28;20056;-75
2021/09/12 03:02:32;;;;;;;7.25;4.63;;;;;;;17.10;100.00;101371.34;6248763;28;20057;-74
2021/09/12 03:05:34;;;;;;;9.40;5.63;;;;;;;17.09;100.00;101372.31;6248755;28;20515;-75
2021/09/12 03:08:35;;;;;;;8.00;4.82;;;;;;;17.06;100.00;101363.72;6248621;28;20045;-75
2021/09/12 03:11:38;;;;;;;9.50;4.90;;;;;;;17.02;100.00;101376.34;6248743;28;20053;-74
2021/09/12 03:14:39;;;;;;;13.10;5.13;;;;;;;17.03;100.00;101375.38;6248351;28;20045;-75
2021/09/12 03:17:41;;;;;;;9.35;4.53;;;;;;;17.05;100.00;101372.66;6248604;28;20045;-75
2021/09/12 03:20:42;;;;;;;9.70;4.75;;;;;;;17.06;100.00;101374.34;6248407;28;20049;-74
2021/09/12 03:23:44;;;;;;;10.88;5.47;;;;;;;17.03;100.00;101377.19;6247932;28;20050;-75
2021/09/12 03:26:46;;;;;;;9.43;5.32;;;;;;;17.03;100.00;101375.38;6248284;28;20053;-75
2021/09/12 03:29:48;;;;;;;10.68;5.65;;;;;;;17.01;100.00;101364.03;6248169;28;20053;-74
2021/09/12 03:32:49;;;;;;;10.05;5.00;;;;;;;17.01;100.00;101365.84;6248126;28;20049;-75
2021/09/12 03:35:50;;;;;;;11.00;5.22;;;;;;;16.96;100.00;101361.72;6246919;28;20056;-75
2021/09/12 03:38:52;;;;;;;12.88;5.18;;;;;;;16.97;100.00;101362.56;6247933;28;20053;-75
2021/09/12 03:41:55;;;;;;;12.02;4.78;;;;;;;16.99;100.00;101366.81;6247789;28;20053;-75
2021/09/12 03:44:56;;;;;;;12.07;5.53;;;;;;;16.96;100.00;101363.53;6247783;28;20053;-76
2021/09/12 03:47:57;;;;;;;10.75;4.82;;;;;;;16.96;100.00;101358.22;6247722;28;20060;-75
2021/09/12 03:50:59;;;;;;;11.07;5.03;;;;;;;16.98;100.00;101370.41;6247975;28;20045;-74
2021/09/12 03:54:00;;;;;;;13.75;5.88;;;;;;;16.99;100.00;101371.28;6247421;28;20049;-75
2021/09/12 03:57:04;;;;;;;13.45;5.65;;;;;;;17.00;100.00;101362.34;6247432;28;20041;-75
2021/09/12 04:00:08;;;;;;;11.75;5.28;;;;;;;16.99;100.00;101360.66;6247623;28;20058;-76
2021/09/12 04:03:09;;;;;;;12.25;6.00;;;;;;;16.95;100.00;101352.06;6247316;28;20053;-74
2021/09/12 04:06:11;;;;;;;9.48;4.50;;;;;;;16.95;100.00;101354.72;6247347;28;20060;-75
2021/09/12 04:09:12;;;;;;;12.13;5.82;;;;;;;16.93;100.00;101364.56;6247461;28;20045;-75
2021/09/12 04:12:15;;;;;;;15.02;6.43;;;;;;;16.94;100.00;101368.06;6247446;28;20060;-74
2021/09/12 04:15:16;;;;;;;14.07;6.38;;;;;;;16.94;100.00;101368.94;6247008;28;20056;-75
2021/09/12 04:18:17;;;;;;;9.82;5.32;;;;;;;16.95;100.00;101362.69;6247129;28;20060;-74
2021/09/12 04:21:19;;;;;;;13.60;6.22;;;;;;;16.96;100.00;101363.53;6239060;28;20041;-74
2021/09/12 04:24:20;;;;;;;13.52;6.40;;;;;;;16.95;100.00;101362.69;6222420;28;20053;-74
2021/09/12 04:27:23;;;;;;;10.70;5.07;;;;;;;16.91;100.00;101366.50;6222639;28;20046;-74
2021/09/12 04:30:24;;;;;;;11.10;5.47;;;;;;;16.92;100.00;101362.88;6222567;28;20049;-75
2021/09/12 04:33:26;;;;;;;13.38;5.47;;;;;;;16.95;100.00;101361.84;6225987;28;20050;-74
2021/09/12 04:36:28;;;;;;;11.60;6.47;;;;;;;16.95;100.00;101365.31;6226771;28;20052;-74
2021/09/12 04:39:29;;;;;;;16.20;6.10;;;;;;;16.95;100.00;101364.47;6234130;28;20054;-75
2021/09/12 04:42:33;;;;;;;12.38;6.28;;;;;;;16.96;100.00;101368.84;6236986;28;20045;-74
2021/09/12 04:45:34;;;;;;;12.82;5.95;;;;;;;16.93;100.00;101361.91;6232373;28;20409;-75
2021/09/12 04:48:36;;;;;;;12.38;6.28;;;;;;;16.92;100.00;101357.56;6232504;28;20064;-75
2021/09/12 04:51:37;;;;;;;15.88;6.75;;;;;;;16.92;100.00;101365.53;6238878;28;20045;-74
2021/09/12 04:54:39;;;;;;;16.85;6.03;;;;;;;16.93;100.00;101369.03;6239519;28;20049;-75
2021/09/12 04:57:42;;;;;;;10.20;4.88;;;;;;;16.95;100.00;101364.47;6239876;28;20041;-74
2021/09/12 05:00:43;;;;;;;15.27;6.13;;;;;;;16.96;100.00;101363.53;6239784;28;20061;-74
2021/09/12 05:03:45;;;;;;;12.88;5.72;;;;;;;16.97;100.00;101359.91;6239505;28;20053;-75
2021/09/12 05:06:46;;;;;;;12.93;6.60;;;;;;;16.96;100.00;101367.03;6227310;28;20064;-75
2021/09/12 05:09:48;;;;;;;13.10;6.55;;;;;;;16.99;100.00;101364.16;6226573;28;20061;-75
2021/09/12 05:12:50;;;;;;;10.93;6.60;;;;;;;17.00;100.00;101372.97;6222001;28;20053;-75
2021/09/12 05:15:51;;;;;;;11.77;5.47;;;;;;;17.02;100.00;101380.81;6221566;28;20045;-75
2021/09/12 05:18:54;;;;;;;14.38;6.07;;;;;;;16.98;100.00;101386.34;6221865;28;20053;-75
2021/09/12 05:21:55;;;;;;;13.23;6.10;;;;;;;16.99;100.00;101382.75;6221522;28;20421;-75
2021/09/12 05:24:57;;;;;;;21.27;7.75;;;;;;;17.00;100.00;101380.94;6221415;28;20069;-75
2021/09/12 05:28:00;;;;;;;15.32;6.63;;;;;;;17.01;100.00;101382.63;6221765;28;20053;-75
2021/09/12 05:31:01;;;;;;;15.57;6.57;;;;;;;17.04;100.00;101386.88;6226239;28;20049;-74
2021/09/12 05:34:02;;;;;;;10.45;6.00;;;;;;;17.07;100.00;101387.50;6233303;28;20699;-75
2021/09/12 05:37:04;;;;;;;13.88;6.15;;;;;;;17.03;100.00;101391.31;6230650;28;20164;-75
2021/09/12 05:40:07;;;;;;;13.15;6.57;;;;;;;17.03;100.00;101393.13;6221474;28;20046;-75
2021/09/12 05:43:10;;;;;;;15.38;6.60;;;;;;;17.02;100.00;101386.97;6221583;28;20489;-75
2021/09/12 05:46:12;;;;;;;14.57;7.68;;;;;;;17.02;100.00;101392.28;6221330;28;20046;-75
2021/09/12 05:49:13;;;;;;;17.20;6.90;;;;;;;17.03;100.00;101398.44;6221290;28;20050;-74
2021/09/12 05:52:14;;;;;;;17.80;7.65;;;;;;;17.01;100.00;101395.91;6221485;28;20050;-75
2021/09/12 05:55:16;;;;;;;14.43;6.93;;;;;;;17.03;100.00;101409.91;6221108;28;20045;-75
2021/09/12 05:58:18;;;;;;;17.08;8.30;;;;;;;17.02;100.00;101405.56;6222509;28;20045;-75
2021/09/12 06:01:20;;;;;;;15.75;7.40;;;;;;;17.05;100.00;101407.16;6225580;28;20046;-75
2021/09/12 06:04:21;;;;;;;15.98;7.18;;;;;;;17.02;100.00;101404.72;6225527;28;20137;-74
2021/09/12 06:07:23;;;;;;;13.88;6.35;;;;;;;17.04;100.00;101398.34;6249139;28;20511;-74
2021/09/12 06:10:24;;;;;;;15.27;6.85;;;;;;;17.04;100.00;101403.66;6249788;28;20489;-75
2021/09/12 06:13:27;;;;;;;15.05;6.90;;;;;;;17.06;100.00;101398.25;6249740;28;20594;-75
2021/09/12 06:16:28;;;;;;;17.75;7.68;;;;;;;17.08;100.00;101405.16;6249867;28;20141;-74
2021/09/12 06:19:29;;;;;;;14.82;8.63;;;;;;;17.10;100.00;101405.88;6249846;28;20408;-75
2021/09/12 06:22:31;;;;;;;15.07;7.25;;;;;;;17.12;100.00;101411.06;6249645;28;20053;-75
2021/09/12 06:25:32;;;;;;;15.38;7.70;;;;;;;17.11;100.00;101414.69;6249594;28;20057;-74
2021/09/12 06:28:35;;;;;;;14.13;7.28;;;;;;;17.14;100.00;101411.84;6249537;28;20394;-75
2021/09/12 06:31:36;;;;;;;21.38;7.90;;;;;;;17.15;100.00;101414.38;6249412;28;20549;-74
2021/09/12 06:34:38;;;;;;;16.85;7.68;;;;;;;17.18;100.00;101414.16;6249222;28;20050;-74
2021/09/12 06:37:39;;;;;;;14.50;7.38;;;;;;;17.23;100.00;101419.16;6249708;28;20045;-74
2021/09/12 06:40:40;;;;;;;21.70;8.05;;;;;;;17.28;100.00;101411.72;6249344;28;20045;-75
2021/09/12 06:43:43;;;;;;;16.05;8.38;;;;;;;17.32;100.00;101407.03;6249213;28;20245;-75
2021/09/12 06:46:45;;;;;;;17.00;7.97;;;;;;;17.34;100.00;101415.72;6249349;28;20049;-75
2021/09/12 06:49:46;;;;;;;16.38;8.02;;;;;;;17.35;100.00;101413.00;6249027;28;20045;-74
2021/09/12 06:52:47;;;;;;;18.80;7.90;;;;;;;17.48;100.00;101418.25;6248156;28;20041;-73
2021/09/12 06:55:49;;;;;;;18.27;7.88;;;;;;;17.44;100.00;101414.97;6248562;28;20463;-75
2021/09/12 06:58:51;;;;;;;16.23;7.43;;;;;;;17.47;100.00;101417.41;6248855;28;20046;-74
2021/09/12 07:01:53;;;;;;;26.05;8.65;;;;;;;17.52;100.00;101408.25;6248742;28;20072;-75
2021/09/12 07:04:55;;;;;;;17.35;7.93;;;;;;;17.50;100.00;101411.88;6248428;28;20049;-75
2021/09/12 07:07:56;;;;;;;19.00;8.05;;;;;;;17.50;100.00;101414.53;6248734;28;20046;-74
2021/09/12 07:10:57;;;;;;;19.48;8.10;;;;;;;17.55;100.00;101408.03;6248653;28;20535;-74
2021/09/12 07:14:00;;;;;;;16.70;8.02;;;;;;;17.60;100.00;101403.25;6248398;28;20057;-75
2021/09/12 07:17:01;;;;;;;21.75;8.88;;;;;;;17.63;100.00;101409.19;6248516;28;20053;-75
2021/09/12 07:20:04;;;;;;;15.88;8.02;;;;;;;17.67;100.00;101409.81;6248188;28;20046;-75
2021/09/12 07:23:06;;;;;;;16.27;7.78;;;;;;;17.68;100.00;101416.84;6248344;28;20045;-75
2021/09/12 07:26:07;;;;;;;14.15;7.25;;;;;;;17.81;100.00;101415.00;6248174;28;20504;-74
2021/09/12 07:29:10;;;;;;;16.25;8.25;;;;;;;17.77;100.00;101408.22;6243255;28;20049;-74
2021/09/12 07:32:12;;;;;;;14.20;7.15;;;;;;;17.78;100.00;101417.03;6247784;28;20507;-75
2021/09/12 07:35:13;;;;;;;14.77;6.85;;;;;;;17.78;100.00;101409.06;6247535;28;20059;-73
2021/09/12 07:38:14;;;;;;;14.55;7.20;;;;;;;17.79;100.00;101411.59;6248027;28;20045;-73
2021/09/12 07:41:16;;;;;;;15.30;6.60;;;;;;;17.82;100.00;101407.88;6247084;28;20493;-74
2021/09/12 07:44:19;;;;;;;14.30;6.88;;;;;;;17.77;100.00;101408.22;6241237;28;20049;-74
2021/09/12 07:47:20;;;;;;;11.70;6.15;;;;;;;17.79;100.00;101416.91;6247584;28;20111;-75
2021/09/12 07:50:21;;;;;;;13.10;6.25;;;;;;;17.77;100.00;101418.84;6247870;28;20053;-75
2021/09/12 07:53:23;;;;;;;10.38;6.15;;;;;;;17.82;100.00;101422.03;6241746;28;20547;-75
2021/09/12 07:56:24;;;;;;;11.68;6.60;;;;;;;17.86;100.00;101420.84;6237619;28;20045;-74
2021/09/12 07:59:27;;;;;;;11.63;5.93;;;;;;;17.86;100.00;101420.84;6232130;28;20527;-75
2021/09/12 08:02:29;;;;;;;11.60;6.05;;;;;;;17.89;100.00;101414.44;6243070;28;20075;-75
2021/09/12 08:05:30;;;;;;;14.32;6.68;;;;;;;17.92;100.00;101428.34;6246624;28;20041;-74
2021/09/12 08:08:31;;;;;;;13.13;7.05;;;;;;;17.88;100.00;101428.69;6247076;28;20041;-73
2021/09/12 08:11:33;;;;;;;10.52;6.15;;;;;;;17.92;100.00;101427.50;6247166;28;20049;-73
2021/09/12 08:14:35;;;;;;;13.80;5.97;;;;;;;17.93;100.00;101429.19;6246329;28;20049;-73
2021/09/12 08:17:37;;;;;;;12.63;5.82;;;;;;;17.96;100.00;101427.16;6247170;28;20050;-75
2021/09/12 08:20:38;;;;;;;12.20;5.70;;;;;;;18.10;100.00;101433.28;6246442;28;20421;-74
2021/09/12 08:23:40;;;;;;;8.27;5.88;;;;;;;18.13;100.00;101438.41;6246492;28;20525;-74
2021/09/12 08:26:41;;;;;;;15.95;5.75;;;;;;;18.14;100.00;101430.28;6246967;28;20045;-74
2021/09/12 08:29:44;;;;;;;9.02;5.25;;;;;;;18.15;100.00;101429.31;6247017;28;20048;-73
2021/09/12 08:32:45;;;;;;;8.70;4.70;;;;;;;18.11;100.00;101435.81;6246605;28;20397;-74
2021/09/12 08:35:46;;;;;;;12.95;5.38;;;;;;;18.16;100.00;101432.81;6246476;28;20045;-73
2021/09/12 08:38:48;;;;;;;10.02;4.68;;;;;;;18.22;100.00;101440.38;6246795;28;20045;-74
2021/09/12 08:41:49;;;;;;;16.27;5.45;;;;;;;18.25;100.00;101437.47;6246561;28;20053;-73
2021/09/12 08:44:53;;;;;;;14.10;4.82;;;;;;;18.27;100.00;101440.88;6245955;28;20595;-74
2021/09/12 08:47:55;;;;;;;12.18;4.45;;;;;;;18.32;100.00;101446.69;6246532;28;20057;-74
2021/09/12 08:50:56;;;;;;;10.10;4.03;;;;;;;18.34;100.00;101446.56;6246764;28;20045;-74
2021/09/12 08:53:58;;;;;;;8.05;4.78;;;;;;;18.38;100.00;101448.03;6245804;28;20053;-74
2021/09/12 08:56:59;;;;;;;7.57;3.95;;;;;;;18.42;100.00;101447.69;6246729;28;20049;-74
2021/09/12 09:00:14;;;;;;;7.97;4.15;;;;;;;18.44;100.00;101445.78;6244858;28;20045;-74
2021/09/12 09:03:15;;;;;;;7.43;3.50;;;;;;;18.51;100.00;101443.50;6230598;28;20497;-72
2021/09/12 09:06:19;;;;;;;12.80;3.95;;;;;;;18.63;100.00;101437.25;6240173;28;20053;-74
2021/09/12 09:09:20;;;;;;;10.27;4.28;;;;;;;18.78;100.00;101439.72;6237400;28;20058;-75
2021/09/12 09:12:32;;;;;;;7.00;4.30;;;;;;;18.84;100.00;101433.91;6221884;28;20053;-73
2021/09/12 09:15:41;;;;;;;6.22;3.78;;;;;;;18.87;100.00;101436.34;6223803;28;20389;-75
2021/09/12 09:18:42;;;;;;;;;;;;;;;18.97;98.41;101435.50;6246190;28;20419;-74
2021/09/12 09:21:46;;;;;;;7.07;3.78;;;;;;;19.07;99.07;101445.47;6244044;28;19929;-73
2021/09/12 09:24:47;;;;;;;5.97;2.90;;;;;;;19.16;98.37;101447.41;6244486;28;20171;-74
2021/09/12 09:27:54;;;;;;;5.07;2.55;;;;;;;19.20;97.90;101446.19;6246022;28;20061;-74
2021/09/12 09:30:57;;;;;;;3.75;2.42;;;;;;;19.22;97.35;101447.78;6246200;28;20056;-74
2021/09/12 09:34:13;;;;;;;4.53;2.47;;;;;;;19.25;97.00;101442.19;6247390;28;20057;-74
2021/09/12 09:37:17;;;;;;;3.67;1.92;;;;;;;19.39;94.42;101443.75;6250812;28;20060;-74
2021/09/12 09:40:19;;;;;;;4.40;1.88;;;;;;;19.30;91.34;101448.97;6250535;28;20048;-74
2021/09/12 09:43:20;;;;;;;4.20;1.98;;;;;;;19.27;90.13;101450.09;6250464;28;20061;-74
2021/09/12 09:46:32;;;;;;;2.63;1.90;;;;;;;19.23;90.93;101453.97;6250267;28;20049;-75
2021/09/12 09:49:37;;;;;;;3.60;1.80;;;;;;;19.25;89.82;101455.50;6250639;28;20053;-74
2021/09/12 09:52:38;;;;;;;2.97;2.00;;;;;;;19.27;88.02;101456.25;6250360;28;20049;-74
2021/09/12 09:55:40;;;;;;;3.83;1.80;;;;;;;19.37;85.94;101453.72;6249904;28;20053;-73
2021/09/12 09:58:43;;;;;;;2.55;1.73;;;;;;;19.26;85.22;101448.41;6250067;28;20045;-74
2021/09/12 10:01:49;;;;;;;1.83;1.42;;;;;;;19.25;86.33;101442.19;6250391;28;20604;-73
2021/09/12 10:04:51;;;;;;;3.33;1.70;;;;;;;19.33;85.37;101444.25;6249463;28;20128;-73
2021/09/12 10:07:53;;;;;;;6.43;2.53;;;;;;;19.35;86.53;101442.34;6250192;28;20053;-73
2021/09/12 10:10:55;;;;;;;2.42;1.52;;;;;;;19.34;85.17;101453.09;6250175;28;20512;-75
2021/09/12 10:13:58;;;;;;;3.97;1.80;;;;;;;19.41;82.29;101438.34;6250207;28;20061;-74
2021/09/12 10:17:02;;;;;;;2.63;1.60;;;;;;;19.39;83.45;101435.78;6249967;28;20061;-74
2021/09/12 10:20:08;;;;;;;4.35;1.27;;;;;;;19.42;82.43;101445.34;6250184;28;20052;-74
2021/09/12 10:23:12;;;;;;;3.85;2.15;;;;;;;19.48;80.46;101436.84;6249680;28;20045;-73
2021/09/12 10:26:27;;;;;;;1.83;1.10;;;;;;;19.55;79.30;101440.75;6250049;28;20175;-73
2021/09/12 10:29:45;;;;;;;2.70;1.30;;;;;;;19.47;77.96;101440.50;6249722;28;20049;-74
2021/09/12 10:32:50;;;;;;;1.67;1.38;;;;;;;19.55;78.38;101442.56;6249585;28;20041;-76
2021/09/12 10:36:03;;;;;;;5.65;1.63;;;;;;;19.70;77.64;101444.84;6249482;28;20061;-73
2021/09/12 10:39:32;;;;;;;5.10;1.40;;;;;;;19.66;78.09;101440.75;6249584;28;20111;-74
2021/09/12 10:42:42;;;;;;;3.05;1.38;;;;;;;19.80;79.54;101436.97;6250776;28;20050;-74
2021/09/12 10:45:44;;;;;;;2.65;1.30;;;;;;;19.80;80.21;101442.28;6248750;28;20045;-75
2021/09/12 10:49:04;;;;;;;1.40;1.05;;;;;;;19.89;76.72;101428.22;6249303;28;20056;-74
2021/09/12 10:52:09;;;;;;;1.88;1.27;;;;;;;20.02;76.19;101430.72;6249302;28;20495;-76
2021/09/12 10:55:10;;;;;;;3.22;1.33;;;;;;;20.07;76.14;101430.34;6248902;28;20481;-75
2021/09/12 10:58:11;;;;;;;5.93;1.33;;;;;;;20.17;76.35;101429.47;6248104;28;20053;-75
2021/09/12 11:01:14;;;;;;;2.25;1.33;;;;;;;20.30;76.23;101429.28;6248884;28;20053;-75
2021/09/12 11:04:19;;;;;;;4.38;1.48;;;;;;;20.33;75.52;101422.84;6249577;28;20049;-76
2021/09/12 11:07:20;;;;;;;1.17;1.05;;;;;;;20.52;77.57;101429.19;6250269;28;20057;-76
2021/09/12 11:10:38;;;;;;;3.30;1.30;;;;;;;20.49;71.15;101426.81;6248835;28;20062;-76
2021/09/12 11:13:40;;;;;;;3.85;2.28;;;;;;;20.57;72.22;101423.47;6247544;28;20050;-74
2021/09/12 11:16:42;;;;;;;1.85;1.25;;;;;;;20.55;72.84;101420.09;6247377;28;20496;-74
2021/09/12 11:19:53;;;;;;;2.05;1.15;;;;;;;20.61;70.58;101432.91;6248357;28;20049;-76
2021/09/12 11:22:54;;;;;;;1.65;1.00;;;;;;;20.73;71.48;101423.03;6248039;28;20045;-74
2021/09/12 11:25:57;;;;;;;2.15;1.30;;;;;;;20.81;69.47;101415.22;6248259;28;20046;-74
2021/09/12 11:29:02;;;;;;;1.35;1.10;;;;;;;20.64;69.35;101408.63;6248152;28;20171;-75
2021/09/12 11:32:05;;;;;;;2.35;1.48;;;;;;;20.79;68.98;101419.81;6248315;28;20097;-76
2021/09/12 11:35:14;;;;;;;1.65;1.10;;;;;;;21.14;68.54;101410.59;6247970;28;20049;-74
2021/09/12 11:38:15;;;;;;;1.90;0.80;;;;;;;21.31;68.27;101417.13;6248206;28;20049;-76
2021/09/12 11:41:22;;;;;;;4.55;1.15;;;;;;;21.57;64.81;101423.69;6247680;28;20052;-75
2021/09/12 11:44:30;;;;;;;3.22;1.20;;;;;;;21.50;64.70;101420.75;6247829;28;20045;-75
2021/09/12 11:47:33;;;;;;;4.57;1.20;;;;;;;21.52;64.64;101410.75;6247932;28;20053;-76
2021/09/12 11:50:35;;;;;;;1.15;1.05;;;;;;;21.43;63.51;101403.53;6247828;28;20556;-76
2021/09/12 11:53:37;;;;;;;1.38;0.82;;;;;;;21.52;61.60;101412.56;6247751;28;20049;-75
2021/09/12 11:56:40;;;;;;;1.02;0.70;;;;;;;21.54;61.81;101424.00;6246925;28;20053;-75
2021/09/12 11:59:43;;;;;;;1.35;0.90;;;;;;;21.53;61.51;101406.25;6247442;28;20042;-74
2021/09/12 12:02:49;;;;;;;1.52;1.08;;;;;;;21.52;61.69;101413.41;6247680;28;20053;-74
2021/09/12 12:05:52;;;;;;;2.42;0.82;;;;;;;21.51;61.79;101405.53;6247225;28;20054;-76
2021/09/12 12:09:08;;;;;;;1.20;0.88;;;;;;;21.61;61.57;101403.72;6247603;28;20049;-73
2021/09/12 12:12:13;;;;;;;1.35;1.13;;;;;;;21.31;64.16;101403.78;6247124;28;20128;-75
2021/09/12 12:15:14;;;;;;;2.75;1.55;;;;;;;21.28;64.76;101407.53;6247135;28;20060;-76
2021/09/12 12:18:20;;;;;;;1.88;1.13;;;;;;;21.29;64.51;101403.88;6247182;28;20459;-75
2021/09/12 12:21:22;;;;;;;1.55;0.98;;;;;;;21.10;65.03;101401.13;6263102;23;20076;-81
2021/09/12 12:24:24;;;;;;;2.90;0.88;;;;;;;21.08;64.78;101403.13;6210840;28;20046;-81
2021/09/12 12:27:26;;;;;;;1.15;0.90;;;;;;;20.92;66.58;101400.91;6211585;28;20050;-80
2021/09/12 12:30:27;;;;;;;1.88;1.20;;;;;;;20.80;66.02;101407.31;6205078;28;20047;-80
2021/09/12 12:33:28;;;;;;;1.08;0.82;;;;;;;20.71;67.68;101403.59;6187836;28;20070;-80
2021/09/12 12:36:31;;;;;;;1.27;0.98;;;;;;;20.59;69.44;101402.84;6188260;28;20541;-80
2021/09/12 12:39:33;;;;;;;1.63;1.05;;;;;;;20.55;67.91;101404.06;6189149;28;20046;-80
2021/09/12 12:42:35;;;;;;;1.10;1.00;;;;;;;20.42;69.68;101398.03;6190220;28;20046;-82
2021/09/12 12:45:37;;;;;;;2.63;1.50;;;;;;;20.43;70.53;101399.72;6190397;28;20050;-80
2021/09/12 12:48:42;;;;;;;2.50;1.17;;;;;;;20.48;70.63;101398.41;6191490;28;20047;-81
2021/09/12 12:52:00;;;;;;;1.63;1.35;;;;;;;20.54;69.44;101396.19;6191472;28;20054;-80
2021/09/12 12:55:04;;;;;;;2.97;1.10;;;;;;;20.68;68.81;101388.69;6180241;28;20047;-80
2021/09/12 12:58:10;;;;;;;1.40;1.05;;;;;;;20.75;70.67;101391.66;6178779;28;20433;-81
2021/09/12 13:01:13;;;;;;;2.67;1.17;;;;;;;20.94;71.18;101390.94;6179394;28;20073;-82
2021/09/12 13:04:14;;;;;;;5.78;2.05;;;;;;;20.88;66.16;101386.13;6181238;28;20051;-82
2021/09/12 13:07:17;;;;;;;2.55;1.27;;;;;;;20.68;68.64;101383.34;6202954;28;20047;-81
2021/09/12 13:10:18;;;;;;;1.73;1.30;;;;;;;20.60;68.59;101395.66;6212378;28;20054;-81
2021/09/12 13:13:20;;;;;;;2.45;1.80;;;;;;;20.54;68.73;101391.69;6214705;28;20081;-81
2021/09/12 13:16:21;;;;;;;1.25;0.85;;;;;;;20.47;68.78;101387.81;6212160;28;20443;-81
2021/09/12 13:19:24;;;;;;;1.63;0.80;;;;;;;20.42;70.95;101384.69;6211419;28;20057;-81
2021/09/12 13:22:27;;;;;;;1.90;1.00;;;;;;;20.43;70.37;101389.06;6209526;28;20050;-81
2021/09/12 13:25:29;;;;;;;1.48;1.05;;;;;;;20.62;69.98;101381.22;6211504;28;20038;-82
2021/09/12 13:28:30;;;;;;;1.63;0.90;;;;;;;20.97;66.66;101375.47;6210276;28;20055;-81
2021/09/12 13:31:33;;;;;;;1.27;0.88;;;;;;;21.24;65.80;101377.56;6210491;28;20042;-79
2021/09/12 13:34:34;;;;;;;1.10;1.00;;;;;;;21.58;63.33;101376.44;6208987;28;20047;-80
2021/09/12 13:37:37;;;;;;;1.88;1.05;;;;;;;21.75;63.12;101378.41;6209119;28;20554;-76
2021/09/12 13:40:39;;;;;;;2.55;1.17;;;;;;;21.78;63.88;101383.50;6210617;28;20053;-79
2021/09/12 13:43:40;;;;;;;2.00;1.08;;;;;;;22.25;60.49;101380.97;6209999;28;20525;-80
2021/09/12 13:46:41;;;;;;;2.13;0.95;;;;;;;22.63;58.52;101373.91;6208528;28;20057;-79
2021/09/12 13:49:43;;;;;;;0.50;0.50;;;;;;;22.93;56.72;101378.19;6208532;28;20050;-80
2021/09/12 13:52:45;;;;;;;0.80;0.68;;;;;;;22.82;55.06;101386.41;6208703;28;20429;-80
2021/09/12 13:55:47;;;;;;;1.60;0.90;;;;;;;22.31;57.47;101371.56;6208067;28;20050;-80
2021/09/12 13:58:48;;;;;;;1.30;0.85;;;;;;;21.69;61.42;101374.47;6202632;28;20057;-80